Terminal Aerodrome Forecast
Issued by NWS

Home | Current Version | Previous Version | Text Only | Print | Product List | Glossary On
Versions: 1 2 3 4 5 6 7 8 9 10 11 12 13 14 15
000
FTUS45 KABQ 292320
TAFROW
TAF
KROW 292320Z 3000/3024 12008KT P6SM SCT100 BKN150
     FM300200 07010KT P6SM VCTS SCT080CB BKN130
     FM300700 02015KT P6SM -RA SCT025 BKN060
      TEMPO 3008/3012 5SM TSRA BKN025CB
     FM301200 36011KT P6SM -SHRA BKN035 BKN050
     FM301500 03008KT P6SM SCT040 BKN060
     FM301900 10007KT P6SM SCT060=

USA.gov is the U.S. government's official web portal to all federal, state and local government web resources and services.